sensor_id;sensor_type;location;lat;lon;timestamp;pressure;altitude;pressure_sealevel;temperature;humidity
48644;BME280;34928;37.302;-121.984;2024-01-16T00:08:03;101237.0;;;23.33;30.56
48644;BME280;34928;37.302;-121.984;2024-01-16T00:18:09;101239.0;;;23.71;30.46
48644;BME280;34928;37.302;-121.984;2024-01-16T00:28:13;101235.0;;;23.60;30.62
48644;BME280;34928;37.302;-121.984;2024-01-16T00:38:18;101230.0;;;23.57;30.83
48644;BME280;34928;37.302;-121.984;2024-01-16T00:48:23;101230.0;;;23.43;30.41
48644;BME280;34928;37.302;-121.984;2024-01-16T00:58:28;101224.0;;;23.65;30.70
48644;BME280;34928;37.302;-121.984;2024-01-16T01:08:32;101225.0;;;23.42;32.09
48644;BME280;34928;37.302;-121.984;2024-01-16T01:18:38;101230.0;;;23.44;31.97
48644;BME280;34928;37.302;-121.984;2024-01-16T01:28:43;101226.0;;;23.69;31.93
48644;BME280;34928;37.302;-121.984;2024-01-16T01:38:49;101228.0;;;23.98;31.37
48644;BME280;34928;37.302;-121.984;2024-01-16T01:48:54;101239.0;;;23.60;32.43
48644;BME280;34928;37.302;-121.984;2024-01-16T01:58:58;101244.0;;;23.61;32.41
48644;BME280;34928;37.302;-121.984;2024-01-16T02:09:03;101256.0;;;24.01;31.88
48644;BME280;34928;37.302;-121.984;2024-01-16T02:19:09;101267.0;;;24.29;32.08
48644;BME280;34928;37.302;-121.984;2024-01-16T02:29:14;101262.0;;;24.42;31.74
48644;BME280;34928;37.302;-121.984;2024-01-16T02:39:18;101274.0;;;24.31;32.05
48644;BME280;34928;37.302;-121.984;2024-01-16T02:49:23;101277.0;;;24.79;31.83
48644;BME280;34928;37.302;-121.984;2024-01-16T02:59:28;101276.0;;;24.50;31.91
48644;BME280;34928;37.302;-121.984;2024-01-16T03:09:34;101284.0;;;24.89;31.49
48644;BME280;34928;37.302;-121.984;2024-01-16T03:19:39;101292.0;;;24.58;31.68
48644;BME280;34928;37.302;-121.984;2024-01-16T03:29:43;101295.0;;;24.96;31.27
48644;BME280;34928;37.302;-121.984;2024-01-16T03:39:47;101300.0;;;24.90;31.16
48644;BME280;34928;37.302;-121.984;2024-01-16T03:49:53;101305.0;;;25.07;30.98
48644;BME280;34928;37.302;-121.984;2024-01-16T03:59:58;101311.0;;;25.04;31.49
48644;BME280;34928;37.302;-121.984;2024-01-16T04:10:03;101306.0;;;24.82;31.31
48644;BME280;34928;37.302;-121.984;2024-01-16T04:20:10;101309.0;;;24.78;31.92
48644;BME280;34928;37.302;-121.984;2024-01-16T04:30:14;101308.0;;;25.07;31.16
48644;BME280;34928;37.302;-121.984;2024-01-16T04:40:18;101313.0;;;24.70;31.06
48644;BME280;34928;37.302;-121.984;2024-01-16T04:50:23;101318.0;;;24.82;30.99
48644;BME280;34928;37.302;-121.984;2024-01-16T05:00:28;101329.0;;;24.79;31.32
48644;BME280;34928;37.302;-121.984;2024-01-16T05:10:33;101325.0;;;24.65;31.00
48644;BME280;34928;37.302;-121.984;2024-01-16T05:20:38;101334.0;;;25.23;30.91
48644;BME280;34928;37.302;-121.984;2024-01-16T05:30:43;101333.0;;;25.16;30.86
48644;BME280;34928;37.302;-121.984;2024-01-16T05:40:49;101327.0;;;24.70;30.42
48644;BME280;34928;37.302;-121.984;2024-01-16T05:50:53;101331.0;;;24.95;30.68
48644;BME280;34928;37.302;-121.984;2024-01-16T06:00:57;101328.0;;;24.85;30.42
48644;BME280;34928;37.302;-121.984;2024-01-16T06:11:03;101342.0;;;24.78;30.81
48644;BME280;34928;37.302;-121.984;2024-01-16T06:21:09;101338.0;;;24.65;30.87
48644;BME280;34928;37.302;-121.984;2024-01-16T06:31:13;101342.0;;;25.16;30.97
48644;BME280;34928;37.302;-121.984;2024-01-16T06:41:19;101346.0;;;25.07;30.76
48644;BME280;34928;37.302;-121.984;2024-01-16T06:51:23;101354.0;;;24.58;30.89
48644;BME280;34928;37.302;-121.984;2024-01-16T07:01:27;101349.0;;;24.74;31.04
48644;BME280;34928;37.302;-121.984;2024-01-16T07:11:32;101348.0;;;24.74;31.18
48644;BME280;34928;37.302;-121.984;2024-01-16T07:21:37;101349.0;;;24.97;31.27
48644;BME280;34928;37.302;-121.984;2024-01-16T07:31:48;101340.0;;;24.86;31.32
48644;BME280;34928;37.302;-121.984;2024-01-16T07:41:53;101341.0;;;24.33;31.44
48644;BME280;34928;37.302;-121.984;2024-01-16T07:51:58;101331.0;;;24.41;31.34
48644;BME280;34928;37.302;-121.984;2024-01-16T08:02:03;101327.0;;;24.39;31.07
48644;BME280;34928;37.302;-121.984;2024-01-16T08:12:08;101328.0;;;24.23;30.85
48644;BME280;34928;37.302;-121.984;2024-01-16T08:22:12;101325.0;;;24.26;30.53
48644;BME280;34928;37.302;-121.984;2024-01-16T08:32:18;101315.0;;;24.15;30.40
48644;BME280;34928;37.302;-121.984;2024-01-16T08:42:23;101304.0;;;23.98;30.41
48644;BME280;34928;37.302;-121.984;2024-01-16T08:52:28;101306.0;;;23.92;30.33
48644;BME280;34928;37.302;-121.984;2024-01-16T09:02:33;101302.0;;;23.98;30.44
48644;BME280;34928;37.302;-121.984;2024-01-16T09:12:38;101294.0;;;23.62;30.40
48644;BME280;34928;37.302;-121.984;2024-01-16T09:22:42;101299.0;;;23.65;30.47
48644;BME280;34928;37.302;-121.984;2024-01-16T09:32:52;101284.0;;;23.90;30.27
48644;BME280;34928;37.302;-121.984;2024-01-16T09:42:59;101298.0;;;23.68;30.36
48644;BME280;34928;37.302;-121.984;2024-01-16T09:53:04;101306.0;;;23.28;30.48
48644;BME280;34928;37.302;-121.984;2024-01-16T10:03:08;101304.0;;;23.17;30.50
48644;BME280;34928;37.302;-121.984;2024-01-16T10:13:15;101306.0;;;23.37;30.47
48644;BME280;34928;37.302;-121.984;2024-01-16T10:23:24;101309.0;;;23.29;30.54
48644;BME280;34928;37.302;-121.984;2024-01-16T10:33:28;101295.0;;;23.14;30.70
48644;BME280;34928;37.302;-121.984;2024-01-16T10:43:33;101285.0;;;23.12;30.65
48644;BME280;34928;37.302;-121.984;2024-01-16T10:53:41;101274.0;;;22.91;30.76
48644;BME280;34928;37.302;-121.984;2024-01-16T11:03:49;101269.0;;;22.91;30.67
48644;BME280;34928;37.302;-121.984;2024-01-16T11:13:55;101248.0;;;22.86;30.67
48644;BME280;34928;37.302;-121.984;2024-01-16T11:24:04;101261.0;;;22.72;30.76
48644;BME280;34928;37.302;-121.984;2024-01-16T11:34:08;101245.0;;;22.73;30.70
48644;BME280;34928;37.302;-121.984;2024-01-16T11:54:34;101252.0;;;22.59;30.81
48644;BME280;34928;37.302;-121.984;2024-01-16T12:04:37;101237.0;;;22.58;30.74
48644;BME280;34928;37.302;-121.984;2024-01-16T12:14:51;101232.0;;;22.45;30.92
48644;BME280;34928;37.302;-121.984;2024-01-16T12:24:58;101246.0;;;22.60;31.02
48644;BME280;34928;37.302;-121.984;2024-01-16T12:35:03;101224.0;;;22.22;31.04
48644;BME280;34928;37.302;-121.984;2024-01-16T12:45:09;101214.0;;;22.52;31.00
48644;BME280;34928;37.302;-121.984;2024-01-16T12:55:15;101212.0;;;22.07;31.19
48644;BME280;34928;37.302;-121.984;2024-01-16T13:05:18;101226.0;;;22.71;30.89
48644;BME280;34928;37.302;-121.984;2024-01-16T13:15:22;101228.0;;;22.59;31.05
48644;BME280;34928;37.302;-121.984;2024-01-16T13:25:28;101229.0;;;22.54;31.21
48644;BME280;34928;37.302;-121.984;2024-01-16T13:35:34;101217.0;;;22.48;31.19
48644;BME280;34928;37.302;-121.984;2024-01-16T13:45:37;101210.0;;;22.79;31.33
48644;BME280;34928;37.302;-121.984;2024-01-16T13:55:43;101221.0;;;22.83;31.75
48644;BME280;34928;37.302;-121.984;2024-01-16T14:05:47;101236.0;;;22.71;31.99
48644;BME280;34928;37.302;-121.984;2024-01-16T14:15:52;101231.0;;;22.86;32.12
48644;BME280;34928;37.302;-121.984;2024-01-16T14:25:57;101237.0;;;22.75;32.28
48644;BME280;34928;37.302;-121.984;2024-01-16T14:36:03;101227.0;;;23.27;32.42
48644;BME280;34928;37.302;-121.984;2024-01-16T14:46:08;101249.0;;;23.04;32.20
48644;BME280;34928;37.302;-121.984;2024-01-16T14:56:14;101246.0;;;23.25;32.36
48644;BME280;34928;37.302;-121.984;2024-01-16T15:06:17;101249.0;;;23.52;32.33
48644;BME280;34928;37.302;-121.984;2024-01-16T15:16:22;101275.0;;;22.99;32.28
48644;BME280;34928;37.302;-121.984;2024-01-16T15:26:29;101280.0;;;23.79;31.93
48644;BME280;34928;37.302;-121.984;2024-01-16T15:36:32;101287.0;;;23.91;32.25
48644;BME280;34928;37.302;-121.984;2024-01-16T15:56:58;101295.0;;;23.93;31.72
48644;BME280;34928;37.302;-121.984;2024-01-16T16:07:02;101310.0;;;24.29;31.90
48644;BME280;34928;37.302;-121.984;2024-01-16T16:17:08;101309.0;;;24.05;31.69
48644;BME280;34928;37.302;-121.984;2024-01-16T16:27:23;101299.0;;;24.37;31.24
48644;BME280;34928;37.302;-121.984;2024-01-16T16:37:27;101307.0;;;24.37;31.03
48644;BME280;34928;37.302;-121.984;2024-01-16T16:47:33;101318.0;;;24.16;30.84
48644;BME280;34928;37.302;-121.984;2024-01-16T16:57:38;101315.0;;;23.97;30.66
48644;BME280;34928;37.302;-121.984;2024-01-16T17:07:43;101314.0;;;24.11;30.62
48644;BME280;34928;37.302;-121.984;2024-01-16T17:17:48;101305.0;;;24.31;30.55
48644;BME280;34928;37.302;-121.984;2024-01-16T17:27:53;101315.0;;;24.05;30.50
48644;BME280;34928;37.302;-121.984;2024-01-16T17:37:58;101313.0;;;23.79;30.48
48644;BME280;34928;37.302;-121.984;2024-01-16T17:48:03;101323.0;;;23.94;30.50
48644;BME280;34928;37.302;-121.984;2024-01-16T17:58:09;101329.0;;;23.90;30.47
48644;BME280;34928;37.302;-121.984;2024-01-16T18:08:13;101346.0;;;23.68;30.40
48644;BME280;34928;37.302;-121.984;2024-01-16T18:18:18;101318.0;;;23.89;30.35
48644;BME280;34928;37.302;-121.984;2024-01-16T18:28:23;101325.0;;;23.67;30.32
48644;BME280;34928;37.302;-121.984;2024-01-16T18:38:28;101328.0;;;24.13;30.28
48644;BME280;34928;37.302;-121.984;2024-01-16T18:48:32;101336.0;;;24.07;30.34
48644;BME280;34928;37.302;-121.984;2024-01-16T18:58:39;101312.0;;;23.61;30.35
48644;BME280;34928;37.302;-121.984;2024-01-16T19:08:43;101302.0;;;24.06;30.34
48644;BME280;34928;37.302;-121.984;2024-01-16T19:18:48;101286.0;;;23.82;30.34
48644;BME280;34928;37.302;-121.984;2024-01-16T19:28:53;101276.0;;;23.83;30.33
48644;BME280;34928;37.302;-121.984;2024-01-16T19:38:57;101263.0;;;24.07;30.31
48644;BME280;34928;37.302;-121.984;2024-01-16T19:49:02;101247.0;;;23.80;30.37
48644;BME280;34928;37.302;-121.984;2024-01-16T19:59:07;101247.0;;;23.99;30.42
48644;BME280;34928;37.302;-121.984;2024-01-16T20:09:12;101208.0;;;24.00;30.43
48644;BME280;34928;37.302;-121.984;2024-01-16T20:19:18;101196.0;;;23.74;30.51
48644;BME280;34928;37.302;-121.984;2024-01-16T20:29:23;101200.0;;;23.56;30.47
48644;BME280;34928;37.302;-121.984;2024-01-16T20:39:27;101171.0;;;23.80;30.48
48644;BME280;34928;37.302;-121.984;2024-01-16T20:49:33;101158.0;;;23.58;30.52
48644;BME280;34928;37.302;-121.984;2024-01-16T20:59:37;101145.0;;;23.84;30.52
48644;BME280;34928;37.302;-121.984;2024-01-16T21:09:43;101132.0;;;23.89;30.48
48644;BME280;34928;37.302;-121.984;2024-01-16T21:19:47;101131.0;;;23.92;30.50
48644;BME280;34928;37.302;-121.984;2024-01-16T21:29:53;101126.0;;;23.91;30.55
48644;BME280;34928;37.302;-121.984;2024-01-16T21:39:57;101112.0;;;23.91;30.56
48644;BME280;34928;37.302;-121.984;2024-01-16T21:50:04;101101.0;;;23.92;30.61
48644;BME280;34928;37.302;-121.984;2024-01-16T22:00:09;101089.0;;;23.99;30.54
48644;BME280;34928;37.302;-121.984;2024-01-16T22:10:12;101072.0;;;24.00;30.76
48644;BME280;34928;37.302;-121.984;2024-01-16T22:20:18;101077.0;;;23.84;31.08
48644;BME280;34928;37.302;-121.984;2024-01-16T22:30:23;101072.0;;;24.24;31.48
48644;BME280;34928;37.302;-121.984;2024-01-16T22:40:27;101077.0;;;23.59;31.21
48644;BME280;34928;37.302;-121.984;2024-01-16T22:50:33;101081.0;;;24.00;31.06
48644;BME280;34928;37.302;-121.984;2024-01-16T23:00:37;101075.0;;;23.60;31.05
48644;BME280;34928;37.302;-121.984;2024-01-16T23:10:43;101069.0;;;23.42;31.14
48644;BME280;34928;37.302;-121.984;2024-01-16T23:20:48;101083.0;;;23.91;31.05
48644;BME280;34928;37.302;-121.984;2024-01-16T23:30:53;101071.0;;;24.07;31.29
48644;BME280;34928;37.302;-121.984;2024-01-16T23:40:58;101051.0;;;23.88;31.20
48644;BME280;34928;37.302;-121.984;2024-01-16T23:51:02;101030.0;;;23.79;31.33
